sensor_id;sensor_type;location;lat;lon;timestamp;P1;durP1;ratioP1;P2;durP2;ratioP2
20699;SDS011;10511;51.232;9.420;2022-12-18T00:02:19;2.30;;;2.30;;
20699;SDS011;10511;51.232;9.420;2022-12-18T00:04:47;2.50;;;2.40;;
20699;SDS011;10511;51.232;9.420;2022-12-18T00:07:14;2.53;;;2.47;;
20699;SDS011;10511;51.232;9.420;2022-12-18T00:09:40;2.30;;;2.30;;
20699;SDS011;10511;51.232;9.420;2022-12-18T00:12:07;2.60;;;2.50;;
20699;SDS011;10511;51.232;9.420;2022-12-18T00:14:34;2.57;;;2.47;;
20699;SDS011;10511;51.232;9.420;2022-12-18T00:17:01;2.13;;;2.13;;
20699;SDS011;10511;51.232;9.420;2022-12-18T00:19:30;2.50;;;2.40;;
20699;SDS011;10511;51.232;9.420;2022-12-18T00:21:57;2.60;;;2.50;;
20699;SDS011;10511;51.232;9.420;2022-12-18T00:24:24;2.43;;;2.37;;
20699;SDS011;10511;51.232;9.420;2022-12-18T00:26:51;2.40;;;2.40;;
20699;SDS011;10511;51.232;9.420;2022-12-18T00:29:18;2.50;;;2.40;;
20699;SDS011;10511;51.232;9.420;2022-12-18T00:31:45;2.57;;;2.47;;
20699;SDS011;10511;51.232;9.420;2022-12-18T00:34:12;2.57;;;2.47;;
20699;SDS011;10511;51.232;9.420;2022-12-18T00:36:40;2.50;;;2.40;;
20699;SDS011;10511;51.232;9.420;2022-12-18T00:39:07;2.30;;;2.30;;
20699;SDS011;10511;51.232;9.420;2022-12-18T00:41:36;2.63;;;2.53;;
20699;SDS011;10511;51.232;9.420;2022-12-18T00:44:20;2.60;;;2.50;;
20699;SDS011;10511;51.232;9.420;2022-12-18T00:46:47;2.60;;;2.50;;
20699;SDS011;10511;51.232;9.420;2022-12-18T00:49:14;2.60;;;2.50;;
20699;SDS011;10511;51.232;9.420;2022-12-18T00:51:44;2.60;;;2.50;;
20699;SDS011;10511;51.232;9.420;2022-12-18T00:54:11;2.23;;;2.23;;
20699;SDS011;10511;51.232;9.420;2022-12-18T00:56:38;2.20;;;2.20;;
20699;SDS011;10511;51.232;9.420;2022-12-18T00:59:05;2.40;;;2.40;;
20699;SDS011;10511;51.232;9.420;2022-12-18T01:01:32;2.53;;;2.43;;
20699;SDS011;10511;51.232;9.420;2022-12-18T01:04:00;2.47;;;2.40;;
20699;SDS011;10511;51.232;9.420;2022-12-18T01:06:27;2.30;;;2.30;;
20699;SDS011;10511;51.232;9.420;2022-12-18T01:08:56;2.20;;;2.20;;
20699;SDS011;10511;51.232;9.420;2022-12-18T01:11:23;2.57;;;2.47;;
20699;SDS011;10511;51.232;9.420;2022-12-18T01:13:51;2.50;;;2.40;;
20699;SDS011;10511;51.232;9.420;2022-12-18T01:16:18;2.50;;;2.40;;
20699;SDS011;10511;51.232;9.420;2022-12-18T01:18:45;2.57;;;2.47;;
20699;SDS011;10511;51.232;9.420;2022-12-18T01:21:13;2.50;;;2.40;;
20699;SDS011;10511;51.232;9.420;2022-12-18T01:23:41;2.60;;;2.50;;
20699;SDS011;10511;51.232;9.420;2022-12-18T01:26:10;2.50;;;2.40;;
20699;SDS011;10511;51.232;9.420;2022-12-18T01:28:38;2.60;;;2.50;;
20699;SDS011;10511;51.232;9.420;2022-12-18T01:31:10;2.60;;;2.50;;
20699;SDS011;10511;51.232;9.420;2022-12-18T01:33:42;2.50;;;2.40;;
20699;SDS011;10511;51.232;9.420;2022-12-18T01:36:14;2.20;;;2.20;;
20699;SDS011;10511;51.232;9.420;2022-12-18T01:38:41;2.60;;;2.50;;
20699;SDS011;10511;51.232;9.420;2022-12-18T01:41:10;2.50;;;2.40;;
20699;SDS011;10511;51.232;9.420;2022-12-18T01:43:41;2.50;;;2.40;;
20699;SDS011;10511;51.232;9.420;2022-12-18T01:46:16;2.50;;;2.40;;
20699;SDS011;10511;51.232;9.420;2022-12-18T01:48:45;2.70;;;2.60;;
20699;SDS011;10511;51.232;9.420;2022-12-18T01:51:15;2.70;;;2.60;;
20699;SDS011;10511;51.232;9.420;2022-12-18T01:53:42;2.50;;;2.40;;
20699;SDS011;10511;51.232;9.420;2022-12-18T01:56:13;2.60;;;2.50;;
20699;SDS011;10511;51.232;9.420;2022-12-18T01:58:46;2.50;;;2.40;;
20699;SDS011;10511;51.232;9.420;2022-12-18T02:01:19;2.57;;;2.47;;
20699;SDS011;10511;51.232;9.420;2022-12-18T02:03:48;2.53;;;2.43;;
20699;SDS011;10511;51.232;9.420;2022-12-18T02:06:16;2.50;;;2.40;;
20699;SDS011;10511;51.232;9.420;2022-12-18T02:08:53;2.70;;;2.60;;
20699;SDS011;10511;51.232;9.420;2022-12-18T02:11:34;2.30;;;2.30;;
20699;SDS011;10511;51.232;9.420;2022-12-18T02:14:14;2.60;;;2.50;;
20699;SDS011;10511;51.232;9.420;2022-12-18T02:16:49;2.70;;;2.60;;
20699;SDS011;10511;51.232;9.420;2022-12-18T02:19:24;2.80;;;2.70;;
20699;SDS011;10511;51.232;9.420;2022-12-18T02:22:06;2.70;;;2.60;;
20699;SDS011;10511;51.232;9.420;2022-12-18T02:24:54;2.60;;;2.50;;
20699;SDS011;10511;51.232;9.420;2022-12-18T02:27:32;2.50;;;2.40;;
20699;SDS011;10511;51.232;9.420;2022-12-18T02:30:01;2.70;;;2.60;;
20699;SDS011;10511;51.232;9.420;2022-12-18T02:32:30;2.60;;;2.50;;
20699;SDS011;10511;51.232;9.420;2022-12-18T02:35:01;2.60;;;2.50;;
20699;SDS011;10511;51.232;9.420;2022-12-18T02:37:30;2.30;;;2.30;;
20699;SDS011;10511;51.232;9.420;2022-12-18T02:40:00;2.53;;;2.43;;
20699;SDS011;10511;51.232;9.420;2022-12-18T02:42:29;2.60;;;2.50;;
20699;SDS011;10511;51.232;9.420;2022-12-18T02:44:58;2.70;;;2.60;;
20699;SDS011;10511;51.232;9.420;2022-12-18T02:47:26;2.30;;;2.30;;
20699;SDS011;10511;51.232;9.420;2022-12-18T02:49:58;2.60;;;2.50;;
20699;SDS011;10511;51.232;9.420;2022-12-18T02:52:32;2.50;;;2.40;;
20699;SDS011;10511;51.232;9.420;2022-12-18T02:55:07;2.60;;;2.50;;
20699;SDS011;10511;51.232;9.420;2022-12-18T02:57:42;2.37;;;2.30;;
20699;SDS011;10511;51.232;9.420;2022-12-18T03:00:17;2.50;;;2.40;;
20699;SDS011;10511;51.232;9.420;2022-12-18T03:02:47;2.60;;;2.50;;
20699;SDS011;10511;51.232;9.420;2022-12-18T03:05:20;2.50;;;2.40;;
20699;SDS011;10511;51.232;9.420;2022-12-18T03:07:51;2.40;;;2.30;;
20699;SDS011;10511;51.232;9.420;2022-12-18T03:10:25;2.63;;;2.53;;
20699;SDS011;10511;51.232;9.420;2022-12-18T03:12:56;2.60;;;2.50;;
20699;SDS011;10511;51.232;9.420;2022-12-18T03:15:29;2.50;;;2.40;;
20699;SDS011;10511;51.232;9.420;2022-12-18T03:18:01;2.27;;;2.27;;
20699;SDS011;10511;51.232;9.420;2022-12-18T03:20:31;2.73;;;2.63;;
20699;SDS011;10511;51.232;9.420;2022-12-18T03:23:02;2.60;;;2.50;;
20699;SDS011;10511;51.232;9.420;2022-12-18T03:25:34;2.63;;;2.53;;
20699;SDS011;10511;51.232;9.420;2022-12-18T03:28:02;2.53;;;2.43;;
20699;SDS011;10511;51.232;9.420;2022-12-18T03:30:34;2.50;;;2.40;;
20699;SDS011;10511;51.232;9.420;2022-12-18T03:33:05;2.70;;;2.60;;
20699;SDS011;10511;51.232;9.420;2022-12-18T03:35:37;2.80;;;2.70;;
20699;SDS011;10511;51.232;9.420;2022-12-18T03:38:08;2.73;;;2.63;;
20699;SDS011;10511;51.232;9.420;2022-12-18T03:40:39;2.50;;;2.40;;
20699;SDS011;10511;51.232;9.420;2022-12-18T03:43:16;2.73;;;2.63;;
20699;SDS011;10511;51.232;9.420;2022-12-18T03:45:52;2.70;;;2.60;;
20699;SDS011;10511;51.232;9.420;2022-12-18T03:48:26;2.80;;;2.70;;
20699;SDS011;10511;51.232;9.420;2022-12-18T03:51:01;2.63;;;2.53;;
20699;SDS011;10511;51.232;9.420;2022-12-18T03:53:33;2.67;;;2.57;;
20699;SDS011;10511;51.232;9.420;2022-12-18T03:56:03;2.70;;;2.60;;
20699;SDS011;10511;51.232;9.420;2022-12-18T03:58:32;2.77;;;2.67;;
20699;SDS011;10511;51.232;9.420;2022-12-18T04:01:02;2.80;;;2.70;;
20699;SDS011;10511;51.232;9.420;2022-12-18T04:03:33;2.70;;;2.60;;
20699;SDS011;10511;51.232;9.420;2022-12-18T04:06:02;2.60;;;2.50;;
20699;SDS011;10511;51.232;9.420;2022-12-18T04:08:29;2.73;;;2.63;;
20699;SDS011;10511;51.232;9.420;2022-12-18T04:10:56;2.77;;;2.67;;
20699;SDS011;10511;51.232;9.420;2022-12-18T04:13:24;2.70;;;2.60;;
20699;SDS011;10511;51.232;9.420;2022-12-18T04:15:53;2.60;;;2.50;;
20699;SDS011;10511;51.232;9.420;2022-12-18T04:18:21;2.60;;;2.50;;
20699;SDS011;10511;51.232;9.420;2022-12-18T04:20:48;2.70;;;2.60;;
20699;SDS011;10511;51.232;9.420;2022-12-18T04:23:15;2.53;;;2.43;;
20699;SDS011;10511;51.232;9.420;2022-12-18T04:25:42;2.70;;;2.60;;
20699;SDS011;10511;51.232;9.420;2022-12-18T04:28:09;2.77;;;2.67;;
20699;SDS011;10511;51.232;9.420;2022-12-18T04:30:36;2.80;;;2.70;;
20699;SDS011;10511;51.232;9.420;2022-12-18T04:33:05;2.73;;;2.63;;
20699;SDS011;10511;51.232;9.420;2022-12-18T04:35:36;2.30;;;2.30;;
20699;SDS011;10511;51.232;9.420;2022-12-18T04:38:03;2.90;;;2.80;;
20699;SDS011;10511;51.232;9.420;2022-12-18T04:40:31;2.60;;;2.50;;
20699;SDS011;10511;51.232;9.420;2022-12-18T04:43:01;2.60;;;2.50;;
20699;SDS011;10511;51.232;9.420;2022-12-18T04:45:29;2.77;;;2.67;;
20699;SDS011;10511;51.232;9.420;2022-12-18T04:47:56;2.60;;;2.50;;
20699;SDS011;10511;51.232;9.420;2022-12-18T04:50:23;2.60;;;2.50;;
20699;SDS011;10511;51.232;9.420;2022-12-18T04:52:52;2.50;;;2.40;;
20699;SDS011;10511;51.232;9.420;2022-12-18T04:55:19;2.70;;;2.60;;
20699;SDS011;10511;51.232;9.420;2022-12-18T04:57:46;2.37;;;2.33;;
20699;SDS011;10511;51.232;9.420;2022-12-18T05:00:13;2.70;;;2.60;;
20699;SDS011;10511;51.232;9.420;2022-12-18T05:02:40;2.60;;;2.50;;
20699;SDS011;10511;51.232;9.420;2022-12-18T05:05:07;2.60;;;2.50;;
20699;SDS011;10511;51.232;9.420;2022-12-18T05:07:34;2.80;;;2.70;;
20699;SDS011;10511;51.232;9.420;2022-12-18T05:10:03;2.80;;;2.70;;
20699;SDS011;10511;51.232;9.420;2022-12-18T05:12:31;2.53;;;2.43;;
20699;SDS011;10511;51.232;9.420;2022-12-18T05:14:58;2.80;;;2.70;;
20699;SDS011;10511;51.232;9.420;2022-12-18T05:17:25;2.53;;;2.43;;
20699;SDS011;10511;51.232;9.420;2022-12-18T05:19:52;2.33;;;2.33;;
20699;SDS011;10511;51.232;9.420;2022-12-18T05:22:19;2.70;;;2.60;;
20699;SDS011;10511;51.232;9.420;2022-12-18T05:24:46;2.83;;;2.73;;
20699;SDS011;10511;51.232;9.420;2022-12-18T05:27:14;2.77;;;2.67;;
20699;SDS011;10511;51.232;9.420;2022-12-18T05:29:41;2.50;;;2.40;;
20699;SDS011;10511;51.232;9.420;2022-12-18T05:32:08;2.90;;;2.80;;
20699;SDS011;10511;51.232;9.420;2022-12-18T05:34:35;2.70;;;2.60;;
20699;SDS011;10511;51.232;9.420;2022-12-18T05:37:02;2.53;;;2.43;;
20699;SDS011;10511;51.232;9.420;2022-12-18T05:39:29;2.70;;;2.60;;
20699;SDS011;10511;51.232;9.420;2022-12-18T05:41:56;2.60;;;2.50;;
20699;SDS011;10511;51.232;9.420;2022-12-18T05:44:24;2.60;;;2.50;;
20699;SDS011;10511;51.232;9.420;2022-12-18T05:46:51;2.60;;;2.50;;
20699;SDS011;10511;51.232;9.420;2022-12-18T05:49:18;2.50;;;2.40;;
20699;SDS011;10511;51.232;9.420;2022-12-18T05:51:45;2.60;;;2.50;;
20699;SDS011;10511;51.232;9.420;2022-12-18T05:54:12;2.93;;;2.83;;
20699;SDS011;10511;51.232;9.420;2022-12-18T05:56:39;3.00;;;2.90;;
20699;SDS011;10511;51.232;9.420;2022-12-18T05:59:06;2.80;;;2.70;;
20699;SDS011;10511;51.232;9.420;2022-12-18T06:01:34;2.87;;;2.77;;
20699;SDS011;10511;51.232;9.420;2022-12-18T06:04:01;2.80;;;2.70;;
20699;SDS011;10511;51.232;9.420;2022-12-18T06:06:28;2.70;;;2.60;;
20699;SDS011;10511;51.232;9.420;2022-12-18T06:08:55;2.97;;;2.87;;
20699;SDS011;10511;51.232;9.420;2022-12-18T06:11:23;2.80;;;2.70;;
20699;SDS011;10511;51.232;9.420;2022-12-18T06:13:50;2.90;;;2.80;;
20699;SDS011;10511;51.232;9.420;2022-12-18T06:16:18;2.90;;;2.80;;
20699;SDS011;10511;51.232;9.420;2022-12-18T06:18:46;2.70;;;2.60;;
20699;SDS011;10511;51.232;9.420;2022-12-18T06:21:13;2.80;;;2.70;;
20699;SDS011;10511;51.232;9.420;2022-12-18T06:23:40;2.90;;;2.80;;
20699;SDS011;10511;51.232;9.420;2022-12-18T06:26:08;2.50;;;2.40;;
20699;SDS011;10511;51.232;9.420;2022-12-18T06:28:36;2.90;;;2.80;;
20699;SDS011;10511;51.232;9.420;2022-12-18T06:31:03;2.60;;;2.50;;
20699;SDS011;10511;51.232;9.420;2022-12-18T06:33:31;2.80;;;2.70;;
20699;SDS011;10511;51.232;9.420;2022-12-18T06:36:00;2.80;;;2.70;;
20699;SDS011;10511;51.232;9.420;2022-12-18T06:38:29;2.70;;;2.60;;
20699;SDS011;10511;51.232;9.420;2022-12-18T06:40:57;2.80;;;2.70;;
20699;SDS011;10511;51.232;9.420;2022-12-18T06:43:23;2.60;;;2.50;;
20699;SDS011;10511;51.232;9.420;2022-12-18T06:45:50;2.80;;;2.70;;
20699;SDS011;10511;51.232;9.420;2022-12-18T06:48:23;2.70;;;2.60;;
20699;SDS011;10511;51.232;9.420;2022-12-18T06:50:50;2.70;;;2.60;;
20699;SDS011;10511;51.232;9.420;2022-12-18T06:53:18;2.70;;;2.60;;
20699;SDS011;10511;51.232;9.420;2022-12-18T06:55:45;2.70;;;2.60;;
20699;SDS011;10511;51.232;9.420;2022-12-18T06:58:12;2.53;;;2.43;;
20699;SDS011;10511;51.232;9.420;2022-12-18T07:00:39;2.63;;;2.53;;
20699;SDS011;10511;51.232;9.420;2022-12-18T07:03:06;2.90;;;2.80;;
20699;SDS011;10511;51.232;9.420;2022-12-18T07:05:33;2.70;;;2.60;;
20699;SDS011;10511;51.232;9.420;2022-12-18T07:08:00;2.80;;;2.70;;
20699;SDS011;10511;51.232;9.420;2022-12-18T07:10:29;2.50;;;2.40;;
20699;SDS011;10511;51.232;9.420;2022-12-18T07:12:56;2.60;;;2.50;;
20699;SDS011;10511;51.232;9.420;2022-12-18T07:15:22;2.60;;;2.50;;
20699;SDS011;10511;51.232;9.420;2022-12-18T07:17:49;2.70;;;2.60;;
20699;SDS011;10511;51.232;9.420;2022-12-18T07:20:16;2.70;;;2.60;;
20699;SDS011;10511;51.232;9.420;2022-12-18T07:22:43;2.60;;;2.50;;
20699;SDS011;10511;51.232;9.420;2022-12-18T07:25:10;2.80;;;2.70;;
20699;SDS011;10511;51.232;9.420;2022-12-18T07:27:39;2.70;;;2.60;;
20699;SDS011;10511;51.232;9.420;2022-12-18T07:30:06;2.80;;;2.70;;
20699;SDS011;10511;51.232;9.420;2022-12-18T07:32:34;2.63;;;2.53;;
20699;SDS011;10511;51.232;9.420;2022-12-18T07:35:01;2.67;;;2.57;;
20699;SDS011;10511;51.232;9.420;2022-12-18T07:37:28;2.60;;;2.50;;
20699;SDS011;10511;51.232;9.420;2022-12-18T07:39:55;2.63;;;2.53;;
20699;SDS011;10511;51.232;9.420;2022-12-18T07:42:22;2.60;;;2.50;;
20699;SDS011;10511;51.232;9.420;2022-12-18T07:44:59;2.63;;;2.53;;
20699;SDS011;10511;51.232;9.420;2022-12-18T07:47:27;2.80;;;2.70;;
20699;SDS011;10511;51.232;9.420;2022-12-18T07:49:54;2.90;;;2.80;;
20699;SDS011;10511;51.232;9.420;2022-12-18T07:52:21;2.90;;;2.80;;
20699;SDS011;10511;51.232;9.420;2022-12-18T07:54:48;2.77;;;2.67;;
20699;SDS011;10511;51.232;9.420;2022-12-18T07:57:15;2.90;;;2.80;;
20699;SDS011;10511;51.232;9.420;2022-12-18T07:59:42;2.70;;;2.60;;
20699;SDS011;10511;51.232;9.420;2022-12-18T08:02:10;2.80;;;2.70;;
20699;SDS011;10511;51.232;9.420;2022-12-18T08:04:37;2.80;;;2.70;;
20699;SDS011;10511;51.232;9.420;2022-12-18T08:07:04;2.67;;;2.57;;
20699;SDS011;10511;51.232;9.420;2022-12-18T08:09:31;2.83;;;2.73;;
20699;SDS011;10511;51.232;9.420;2022-12-18T08:11:58;2.60;;;2.50;;
20699;SDS011;10511;51.232;9.420;2022-12-18T08:14:25;2.80;;;2.70;;
20699;SDS011;10511;51.232;9.420;2022-12-18T08:16:52;2.70;;;2.60;;
20699;SDS011;10511;51.232;9.420;2022-12-18T08:19:20;2.70;;;2.60;;
20699;SDS011;10511;51.232;9.420;2022-12-18T08:21:47;2.53;;;2.43;;
20699;SDS011;10511;51.232;9.420;2022-12-18T08:24:14;2.70;;;2.60;;
20699;SDS011;10511;51.232;9.420;2022-12-18T08:26:41;2.70;;;2.60;;
20699;SDS011;10511;51.232;9.420;2022-12-18T08:29:08;2.60;;;2.50;;
20699;SDS011;10511;51.232;9.420;2022-12-18T08:31:36;2.80;;;2.70;;
20699;SDS011;10511;51.232;9.420;2022-12-18T08:34:03;2.60;;;2.50;;
20699;SDS011;10511;51.232;9.420;2022-12-18T08:36:31;2.30;;;2.30;;
20699;SDS011;10511;51.232;9.420;2022-12-18T08:38:58;2.77;;;2.67;;
20699;SDS011;10511;51.232;9.420;2022-12-18T08:41:28;2.70;;;2.60;;
20699;SDS011;10511;51.232;9.420;2022-12-18T08:43:55;2.50;;;2.40;;
20699;SDS011;10511;51.232;9.420;2022-12-18T08:46:39;2.60;;;2.50;;
20699;SDS011;10511;51.232;9.420;2022-12-18T08:49:08;2.60;;;2.50;;
20699;SDS011;10511;51.232;9.420;2022-12-18T08:51:37;2.63;;;2.53;;
20699;SDS011;10511;51.232;9.420;2022-12-18T08:54:05;2.47;;;2.40;;
20699;SDS011;10511;51.232;9.420;2022-12-18T08:56:32;2.70;;;2.60;;
20699;SDS011;10511;51.232;9.420;2022-12-18T08:58:59;2.50;;;2.40;;
20699;SDS011;10511;51.232;9.420;2022-12-18T09:01:27;2.47;;;2.40;;
20699;SDS011;10511;51.232;9.420;2022-12-18T09:03:57;2.60;;;2.50;;
20699;SDS011;10511;51.232;9.420;2022-12-18T09:06:24;2.70;;;2.60;;
20699;SDS011;10511;51.232;9.420;2022-12-18T09:08:53;2.60;;;2.50;;
20699;SDS011;10511;51.232;9.420;2022-12-18T09:11:20;2.70;;;2.60;;
20699;SDS011;10511;51.232;9.420;2022-12-18T09:13:48;2.77;;;2.67;;
20699;SDS011;10511;51.232;9.420;2022-12-18T09:16:16;2.70;;;2.60;;
20699;SDS011;10511;51.232;9.420;2022-12-18T09:18:45;2.70;;;2.60;;
20699;SDS011;10511;51.232;9.420;2022-12-18T09:21:12;2.77;;;2.67;;
20699;SDS011;10511;51.232;9.420;2022-12-18T09:23:41;2.60;;;2.50;;
20699;SDS011;10511;51.232;9.420;2022-12-18T09:26:10;2.67;;;2.57;;
20699;SDS011;10511;51.232;9.420;2022-12-18T09:28:37;2.60;;;2.50;;
20699;SDS011;10511;51.232;9.420;2022-12-18T09:31:05;2.67;;;2.57;;
20699;SDS011;10511;51.232;9.420;2022-12-18T09:33:33;2.70;;;2.60;;
20699;SDS011;10511;51.232;9.420;2022-12-18T09:36:01;2.50;;;2.40;;
20699;SDS011;10511;51.232;9.420;2022-12-18T09:38:29;2.50;;;2.40;;
20699;SDS011;10511;51.232;9.420;2022-12-18T09:40:57;2.73;;;2.63;;
20699;SDS011;10511;51.232;9.420;2022-12-18T09:43:33;2.50;;;2.40;;
20699;SDS011;10511;51.232;9.420;2022-12-18T09:46:04;2.60;;;2.50;;
20699;SDS011;10511;51.232;9.420;2022-12-18T09:48:35;2.70;;;2.60;;
20699;SDS011;10511;51.232;9.420;2022-12-18T09:51:05;2.40;;;2.40;;
20699;SDS011;10511;51.232;9.420;2022-12-18T09:53:40;2.60;;;2.50;;
20699;SDS011;10511;51.232;9.420;2022-12-18T09:56:12;2.50;;;2.40;;
20699;SDS011;10511;51.232;9.420;2022-12-18T09:58:45;2.47;;;2.40;;
20699;SDS011;10511;51.232;9.420;2022-12-18T10:01:20;2.50;;;2.40;;
20699;SDS011;10511;51.232;9.420;2022-12-18T10:03:48;2.30;;;2.30;;
20699;SDS011;10511;51.232;9.420;2022-12-18T10:06:18;2.40;;;2.40;;
20699;SDS011;10511;51.232;9.420;2022-12-18T10:08:52;2.30;;;2.30;;
20699;SDS011;10511;51.232;9.420;2022-12-18T10:11:27;2.53;;;2.43;;
20699;SDS011;10511;51.232;9.420;2022-12-18T10:14:03;2.30;;;2.30;;
20699;SDS011;10511;51.232;9.420;2022-12-18T10:16:36;2.20;;;2.20;;
20699;SDS011;10511;51.232;9.420;2022-12-18T10:22:12;2.20;;;2.20;;
20699;SDS011;10511;51.232;9.420;2022-12-18T10:24:53;2.20;;;2.20;;
20699;SDS011;10511;51.232;9.420;2022-12-18T10:27:24;2.10;;;2.10;;
20699;SDS011;10511;51.232;9.420;2022-12-18T10:29:54;2.00;;;2.00;;
20699;SDS011;10511;51.232;9.420;2022-12-18T10:32:22;2.10;;;2.10;;
20699;SDS011;10511;51.232;9.420;2022-12-18T10:34:54;2.30;;;2.30;;
20699;SDS011;10511;51.232;9.420;2022-12-18T10:37:23;2.10;;;2.10;;
20699;SDS011;10511;51.232;9.420;2022-12-18T10:40:04;2.30;;;2.30;;
20699;SDS011;10511;51.232;9.420;2022-12-18T10:42:37;2.20;;;2.20;;
20699;SDS011;10511;51.232;9.420;2022-12-18T10:45:09;2.20;;;2.20;;
20699;SDS011;10511;51.232;9.420;2022-12-18T10:47:41;2.20;;;2.20;;
20699;SDS011;10511;51.232;9.420;2022-12-18T10:50:17;2.10;;;2.10;;
20699;SDS011;10511;51.232;9.420;2022-12-18T10:52:53;2.00;;;2.00;;
20699;SDS011;10511;51.232;9.420;2022-12-18T10:55:21;2.20;;;2.20;;
20699;SDS011;10511;51.232;9.420;2022-12-18T10:57:49;2.10;;;2.10;;
20699;SDS011;10511;51.232;9.420;2022-12-18T11:00:23;2.10;;;2.10;;
20699;SDS011;10511;51.232;9.420;2022-12-18T11:02:51;2.20;;;2.20;;
20699;SDS011;10511;51.232;9.420;2022-12-18T11:05:25;2.03;;;2.03;;
20699;SDS011;10511;51.232;9.420;2022-12-18T11:07:54;2.00;;;2.00;;
20699;SDS011;10511;51.232;9.420;2022-12-18T11:10:22;2.07;;;2.07;;
20699;SDS011;10511;51.232;9.420;2022-12-18T11:12:54;2.13;;;2.13;;
20699;SDS011;10511;51.232;9.420;2022-12-18T11:15:23;2.10;;;2.10;;
20699;SDS011;10511;51.232;9.420;2022-12-18T11:17:54;2.10;;;2.10;;
20699;SDS011;10511;51.232;9.420;2022-12-18T11:20:27;2.10;;;2.10;;
20699;SDS011;10511;51.232;9.420;2022-12-18T11:22:58;2.00;;;2.00;;
20699;SDS011;10511;51.232;9.420;2022-12-18T11:25:26;2.20;;;2.20;;
20699;SDS011;10511;51.232;9.420;2022-12-18T11:27:55;2.10;;;2.10;;
20699;SDS011;10511;51.232;9.420;2022-12-18T11:30:25;2.10;;;2.10;;
20699;SDS011;10511;51.232;9.420;2022-12-18T11:32:54;2.17;;;2.17;;
20699;SDS011;10511;51.232;9.420;2022-12-18T11:35:27;2.10;;;2.10;;
20699;SDS011;10511;51.232;9.420;2022-12-18T11:38:10;2.10;;;2.10;;
20699;SDS011;10511;51.232;9.420;2022-12-18T11:40:44;2.13;;;2.13;;
20699;SDS011;10511;51.232;9.420;2022-12-18T11:43:18;2.17;;;2.17;;
20699;SDS011;10511;51.232;9.420;2022-12-18T11:45:54;2.10;;;2.10;;
20699;SDS011;10511;51.232;9.420;2022-12-18T11:48:27;2.10;;;2.10;;
20699;SDS011;10511;51.232;9.420;2022-12-18T11:50:56;2.20;;;2.20;;
20699;SDS011;10511;51.232;9.420;2022-12-18T11:53:26;2.10;;;2.10;;
20699;SDS011;10511;51.232;9.420;2022-12-18T11:55:59;2.00;;;2.00;;
20699;SDS011;10511;51.232;9.420;2022-12-18T11:58:38;2.10;;;2.10;;
20699;SDS011;10511;51.232;9.420;2022-12-18T12:01:15;2.07;;;2.07;;
20699;SDS011;10511;51.232;9.420;2022-12-18T12:03:58;2.07;;;2.07;;
20699;SDS011;10511;51.232;9.420;2022-12-18T12:06:42;1.90;;;1.90;;
20699;SDS011;10511;51.232;9.420;2022-12-18T12:09:19;2.10;;;2.10;;
20699;SDS011;10511;51.232;9.420;2022-12-18T12:11:55;2.00;;;2.00;;
20699;SDS011;10511;51.232;9.420;2022-12-18T12:14:34;1.80;;;1.80;;
20699;SDS011;10511;51.232;9.420;2022-12-18T12:17:14;2.00;;;2.00;;
20699;SDS011;10511;51.232;9.420;2022-12-18T12:19:50;2.10;;;2.10;;
20699;SDS011;10511;51.232;9.420;2022-12-18T12:22:24;1.93;;;1.93;;
20699;SDS011;10511;51.232;9.420;2022-12-18T12:25:02;2.00;;;2.00;;
20699;SDS011;10511;51.232;9.420;2022-12-18T12:27:42;2.10;;;2.10;;
20699;SDS011;10511;51.232;9.420;2022-12-18T12:30:18;2.10;;;2.10;;
20699;SDS011;10511;51.232;9.420;2022-12-18T12:32:56;2.00;;;2.00;;
20699;SDS011;10511;51.232;9.420;2022-12-18T12:35:44;2.00;;;2.00;;
20699;SDS011;10511;51.232;9.420;2022-12-18T12:38:17;2.00;;;2.00;;
20699;SDS011;10511;51.232;9.420;2022-12-18T12:40:51;1.90;;;1.90;;
20699;SDS011;10511;51.232;9.420;2022-12-18T12:43:27;2.10;;;2.10;;
20699;SDS011;10511;51.232;9.420;2022-12-18T12:46:02;2.00;;;2.00;;
20699;SDS011;10511;51.232;9.420;2022-12-18T12:48:33;2.00;;;2.00;;
20699;SDS011;10511;51.232;9.420;2022-12-18T12:51:06;1.90;;;1.90;;
20699;SDS011;10511;51.232;9.420;2022-12-18T12:53:38;1.90;;;1.90;;
20699;SDS011;10511;51.232;9.420;2022-12-18T12:56:06;1.97;;;1.97;;
20699;SDS011;10511;51.232;9.420;2022-12-18T12:58:36;1.90;;;1.90;;
20699;SDS011;10511;51.232;9.420;2022-12-18T13:01:16;1.90;;;1.90;;
20699;SDS011;10511;51.232;9.420;2022-12-18T13:03:55;1.87;;;1.87;;
20699;SDS011;10511;51.232;9.420;2022-12-18T13:06:33;1.97;;;1.97;;
20699;SDS011;10511;51.232;9.420;2022-12-18T13:09:08;2.00;;;2.00;;
20699;SDS011;10511;51.232;9.420;2022-12-18T13:11:36;2.00;;;2.00;;
20699;SDS011;10511;51.232;9.420;2022-12-18T13:14:23;2.20;;;2.20;;
20699;SDS011;10511;51.232;9.420;2022-12-18T13:17:14;1.90;;;1.90;;
20699;SDS011;10511;51.232;9.420;2022-12-18T13:19:44;2.00;;;2.00;;
20699;SDS011;10511;51.232;9.420;2022-12-18T13:22:21;1.90;;;1.90;;
20699;SDS011;10511;51.232;9.420;2022-12-18T13:24:49;1.90;;;1.90;;
20699;SDS011;10511;51.232;9.420;2022-12-18T13:36:23;1.97;;;1.97;;
20699;SDS011;10511;51.232;9.420;2022-12-18T13:39:09;2.00;;;2.00;;
20699;SDS011;10511;51.232;9.420;2022-12-18T13:45:37;1.90;;;1.90;;
20699;SDS011;10511;51.232;9.420;2022-12-18T13:48:16;1.97;;;1.97;;
20699;SDS011;10511;51.232;9.420;2022-12-18T13:50:57;1.90;;;1.90;;
20699;SDS011;10511;51.232;9.420;2022-12-18T13:53:29;1.80;;;1.80;;
20699;SDS011;10511;51.232;9.420;2022-12-18T13:56:00;2.10;;;2.10;;
20699;SDS011;10511;51.232;9.420;2022-12-18T13:58:27;2.00;;;2.00;;
20699;SDS011;10511;51.232;9.420;2022-12-18T14:00:54;2.00;;;2.00;;
20699;SDS011;10511;51.232;9.420;2022-12-18T14:03:22;1.90;;;1.90;;
20699;SDS011;10511;51.232;9.420;2022-12-18T14:05:52;2.00;;;2.00;;
20699;SDS011;10511;51.232;9.420;2022-12-18T14:08:21;1.90;;;1.90;;
20699;SDS011;10511;51.232;9.420;2022-12-18T14:11:00;2.00;;;2.00;;
20699;SDS011;10511;51.232;9.420;2022-12-18T14:13:30;2.00;;;2.00;;
20699;SDS011;10511;51.232;9.420;2022-12-18T14:16:00;1.90;;;1.90;;
20699;SDS011;10511;51.232;9.420;2022-12-18T14:18:29;1.90;;;1.90;;
20699;SDS011;10511;51.232;9.420;2022-12-18T14:21:04;1.90;;;1.90;;
20699;SDS011;10511;51.232;9.420;2022-12-18T14:23:34;2.00;;;2.00;;
20699;SDS011;10511;51.232;9.420;2022-12-18T14:26:18;2.10;;;2.10;;
20699;SDS011;10511;51.232;9.420;2022-12-18T14:28:48;2.10;;;2.10;;
20699;SDS011;10511;51.232;9.420;2022-12-18T14:31:18;2.00;;;2.00;;
20699;SDS011;10511;51.232;9.420;2022-12-18T14:33:45;1.93;;;1.93;;
20699;SDS011;10511;51.232;9.420;2022-12-18T14:36:14;1.90;;;1.90;;
20699;SDS011;10511;51.232;9.420;2022-12-18T14:38:47;2.10;;;2.10;;
20699;SDS011;10511;51.232;9.420;2022-12-18T14:41:15;2.03;;;2.03;;
20699;SDS011;10511;51.232;9.420;2022-12-18T14:43:44;1.90;;;1.90;;
20699;SDS011;10511;51.232;9.420;2022-12-18T14:46:28;2.00;;;2.00;;
20699;SDS011;10511;51.232;9.420;2022-12-18T14:49:00;1.80;;;1.80;;
20699;SDS011;10511;51.232;9.420;2022-12-18T14:51:30;2.00;;;2.00;;
20699;SDS011;10511;51.232;9.420;2022-12-18T14:54:00;2.00;;;2.00;;
20699;SDS011;10511;51.232;9.420;2022-12-18T14:56:30;1.90;;;1.90;;
20699;SDS011;10511;51.232;9.420;2022-12-18T14:58:59;2.00;;;2.00;;
20699;SDS011;10511;51.232;9.420;2022-12-18T15:01:29;2.10;;;2.10;;
20699;SDS011;10511;51.232;9.420;2022-12-18T15:03:58;2.10;;;2.10;;
20699;SDS011;10511;51.232;9.420;2022-12-18T15:06:27;2.10;;;2.10;;
20699;SDS011;10511;51.232;9.420;2022-12-18T15:08:57;2.00;;;2.00;;
20699;SDS011;10511;51.232;9.420;2022-12-18T15:11:27;2.00;;;2.00;;
20699;SDS011;10511;51.232;9.420;2022-12-18T15:13:58;2.07;;;2.07;;
20699;SDS011;10511;51.232;9.420;2022-12-18T15:16:25;2.00;;;2.00;;
20699;SDS011;10511;51.232;9.420;2022-12-18T15:18:52;2.00;;;2.00;;
20699;SDS011;10511;51.232;9.420;2022-12-18T15:21:20;2.10;;;2.10;;
20699;SDS011;10511;51.232;9.420;2022-12-18T15:23:47;2.20;;;2.20;;